Time;durP1;ratioP1;P1;durP2;ratioP2;P2;SDS_P1;SDS_P2;PMS_P1;PMS_P2;Temp;Humidity;BMP_temperature;BMP_pressure;BME280_temperature;BME280_humidity;BME280_pressure;Samples;Min_cycle;Max_cycle;Signal;HPM_P1;HPM_P2
2022/09/13 00:01:21;;;;;;;4.97;4.38;;;;;;;21.59;47.51;99247.47;5113788;28;20052;-62
2022/09/13 00:03:48;;;;;;;6.25;4.25;;;;;;;21.57;47.54;99242.28;5113843;28;20051;-61
2022/09/13 00:06:17;;;;;;;5.80;4.78;;;;;;;21.56;47.90;99245.97;5113627;28;20048;-62
2022/09/13 00:08:44;;;;;;;5.30;4.43;;;;;;;21.56;47.72;99237.94;5113505;28;20047;-61
2022/09/13 00:11:20;;;;;;;6.10;4.88;;;;;;;21.51;47.83;99234.94;5112676;28;20082;-62
2022/09/13 00:13:48;;;;;;;5.35;3.90;;;;;;;21.56;47.64;99237.09;5112457;28;20469;-61
2022/09/13 00:16:21;;;;;;;5.95;4.47;;;;;;;21.55;47.73;99241.63;5113614;28;20450;-61
2022/09/13 00:18:48;;;;;;;5.15;4.38;;;;;;;21.56;47.76;99237.94;5113400;28;20047;-61
2022/09/13 00:21:17;;;;;;;5.65;4.88;;;;;;;21.57;47.85;99233.44;5112224;28;20052;-61
2022/09/13 00:23:46;;;;;;;4.65;4.18;;;;;;;21.59;47.79;99236.75;5113225;28;20075;-61
2022/09/13 00:26:16;;;;;;;6.00;4.15;;;;;;;21.58;47.81;99230.59;5113644;28;20554;-62
2022/09/13 00:28:44;;;;;;;6.18;4.20;;;;;;;21.61;47.64;99224.03;5111901;28;20096;-63
2022/09/13 00:31:11;;;;;;;5.35;4.40;;;;;;;21.63;47.68;99221.19;5113292;28;20062;-62
2022/09/13 00:33:37;;;;;;;4.72;4.15;;;;;;;21.65;47.76;99208.44;5111747;28;20048;-62
2022/09/13 00:36:06;;;;;;;5.60;4.43;;;;;;;21.66;47.69;99210.13;5113104;28;20044;-62
2022/09/13 00:38:37;;;;;;;5.22;4.35;;;;;;;21.65;47.65;99203.94;5111590;28;20081;-62
2022/09/13 00:41:06;;;;;;;5.05;4.00;;;;;;;21.69;47.60;99199.06;5112930;28;20171;-63
2022/09/13 00:44:00;;;;;;;5.47;3.92;;;;;;;21.66;47.60;99200.25;5112927;28;20079;-63
2022/09/13 00:46:32;;;;;;;8.60;4.40;;;;;;;21.73;47.38;99203.94;5110728;28;20142;-62
2022/09/13 00:49:19;;;;;;;5.40;3.95;;;;;;;21.70;47.52;99198.03;5111343;28;20051;-61
2022/09/13 00:52:03;;;;;;;5.97;4.50;;;;;;;21.74;47.41;99202.06;5112555;28;20087;-63
2022/09/13 00:54:39;;;;;;;7.00;4.35;;;;;;;21.77;47.71;99200.88;5112747;28;20052;-63
2022/09/13 00:57:07;;;;;;;5.45;4.28;;;;;;;21.79;47.35;99191.66;5112648;28;20046;-62
2022/09/13 00:59:44;;;;;;;5.22;4.22;;;;;;;21.78;47.54;99192.69;5111264;28;20075;-63
2022/09/13 01:02:11;;;;;;;5.13;4.43;;;;;;;21.81;47.48;99186.13;5112644;28;20040;-63
2022/09/13 01:04:38;;;;;;;6.03;4.70;;;;;;;21.80;47.33;99174.59;5112457;28;20055;-62
2022/09/13 01:07:10;;;;;;;7.60;4.65;;;;;;;21.79;47.66;99175.59;5112535;28;20047;-63
2022/09/13 01:09:41;;;;;;;7.43;4.40;;;;;;;21.82;47.65;99185.13;5110825;28;20079;-62
2022/09/13 01:12:36;;;;;;;5.80;4.43;;;;;;;21.79;47.59;99175.59;5111437;28;20078;-61
2022/09/13 01:15:05;;;;;;;5.47;4.22;;;;;;;21.87;47.67;99180.91;5105270;28;20059;-62
2022/09/13 01:17:33;;;;;;;6.68;4.60;;;;;;;21.88;47.52;99173.72;5112420;28;20134;-64
2022/09/13 01:20:03;;;;;;;6.88;4.65;;;;;;;21.89;47.33;99180.75;5111894;28;20500;-63
2022/09/13 01:22:33;;;;;;;7.28;4.43;;;;;;;21.91;47.43;99180.56;5111258;28;20044;-61
2022/09/13 01:25:27;;;;;;;6.15;4.43;;;;;;;21.90;47.59;99182.41;5111870;28;20573;-61
2022/09/13 01:28:07;;;;;;;7.63;4.82;;;;;;;21.92;47.25;99177.72;5110933;28;20083;-62
2022/09/13 01:31:01;;;;;;;5.28;4.30;;;;;;;21.92;47.76;99180.41;5111788;28;20493;-62
2022/09/13 01:33:36;;;;;;;;;;;;;;;21.95;47.10;99179.22;5101938;28;20087;-61
2022/09/13 01:36:24;;;;;;;6.22;4.82;;;;;;;21.99;47.30;99185.88;5112101;28;19919;-61
2022/09/13 01:39:01;;;;;;;6.32;4.80;;;;;;;21.97;47.54;99183.38;5111686;28;20087;-63
2022/09/13 01:41:52;;;;;;;6.20;4.68;;;;;;;21.95;47.54;99180.06;5110623;28;20043;-61
2022/09/13 01:44:42;;;;;;;7.18;4.97;;;;;;;21.93;47.51;99174.03;5111840;28;20090;-62
2022/09/13 01:47:21;;;;;;;6.00;5.00;;;;;;;21.95;47.48;99187.25;5111670;28;20091;-62
2022/09/13 01:50:15;;;;;;;6.90;5.45;;;;;;;21.95;47.48;99181.88;5110399;28;20043;-62
2022/09/13 01:52:58;;;;;;;5.68;5.03;;;;;;;21.96;48.10;99176.34;5111724;28;20047;-62
2022/09/13 01:55:31;;;;;;;7.65;5.53;;;;;;;22.00;48.17;99182.19;5111388;28;20055;-61
2022/09/13 01:58:36;;;;;;;6.00;4.90;;;;;;;21.98;48.17;99186.91;5111433;28;20086;-65
2022/09/13 02:01:17;;;;;;;7.45;5.00;;;;;;;22.02;48.66;99182.00;5111412;28;20052;-62
2022/09/13 02:04:03;;;;;;;6.25;5.18;;;;;;;22.04;48.06;99169.25;5111485;28;20086;-61
2022/09/13 02:06:33;;;;;;;8.25;5.40;;;;;;;22.02;48.50;99168.63;5111542;28;20179;-62
2022/09/13 02:09:06;;;;;;;9.65;5.90;;;;;;;22.00;48.35;99171.47;5110061;28;20135;-61
2022/09/13 02:11:36;;;;;;;7.13;5.85;;;;;;;21.99;48.73;99170.63;5111447;28;20087;-62
2022/09/13 02:14:10;;;;;;;8.18;5.30;;;;;;;21.98;48.88;99168.16;5111365;28;20055;-63
2022/09/13 02:16:41;;;;;;;6.95;5.55;;;;;;;21.98;49.47;99165.47;5110118;28;20094;-62
2022/09/13 02:19:14;;;;;;;7.80;6.07;;;;;;;21.95;49.56;99163.97;5111272;28;20051;-61
2022/09/13 02:21:45;;;;;;;5.82;5.28;;;;;;;21.96;49.35;99171.00;5109984;28;20047;-62
2022/09/13 02:24:18;;;;;;;7.38;6.15;;;;;;;21.95;49.30;99171.16;5111041;28;20095;-64
2022/09/13 02:26:45;;;;;;;;;;;;;;;21.94;48.55;99169.50;5111466;28;20044;-61
2022/09/13 02:29:18;;;;;;;6.22;5.35;;;;;;;21.97;49.20;99163.78;5109952;28;19919;-62
2022/09/13 02:31:53;;;;;;;;;;;;;;;21.93;48.36;99171.34;5111580;28;20043;-62
2022/09/13 02:34:30;;;;;;;4.93;4.40;;;;;;;21.93;49.32;99170.50;5110770;28;19919;-62
2022/09/13 02:36:58;;;;;;;7.43;5.88;;;;;;;21.88;49.06;99168.38;5110801;28;20043;-62
2022/09/13 02:39:28;;;;;;;6.68;5.97;;;;;;;21.82;49.95;99171.72;5109760;28;20047;-62
2022/09/13 02:42:22;;;;;;;7.78;5.88;;;;;;;21.69;50.09;99173.13;5110858;28;20101;-62
2022/09/13 02:44:55;;;;;;;8.23;6.75;;;;;;;21.69;50.11;99170.44;5111132;28;20448;-62
2022/09/13 02:47:43;;;;;;;8.68;6.15;;;;;;;21.62;50.03;99177.50;5109574;28;20134;-62
2022/09/13 02:50:18;;;;;;;7.55;6.03;;;;;;;21.57;50.55;99175.31;5110995;28;20457;-61
2022/09/13 02:53:10;;;;;;;7.05;6.20;;;;;;;21.48;49.86;99171.88;5110810;28;20597;-61
2022/09/13 02:56:01;;;;;;;7.00;6.30;;;;;;;21.41;49.83;99168.19;5110691;28;20563;-61
2022/09/13 02:58:33;;;;;;;8.30;6.95;;;;;;;21.39;50.20;99164.88;5110700;28;20083;-62
2022/09/13 03:01:00;;;;;;;8.82;7.20;;;;;;;21.37;49.79;99164.19;5110800;28;20058;-62
2022/09/13 03:03:27;;;;;;;10.55;7.53;;;;;;;21.33;49.96;99173.59;5110666;28;20105;-61
2022/09/13 03:05:54;;;;;;;7.95;7.05;;;;;;;21.29;50.10;99165.06;5110835;28;20075;-61
2022/09/13 03:08:22;;;;;;;11.52;7.53;;;;;;;21.27;50.03;99163.56;5110836;28;20096;-62
2022/09/13 03:11:07;;;;;;;9.75;8.55;;;;;;;21.19;50.25;99162.59;5110872;28;20044;-63
2022/09/13 03:13:40;;;;;;;9.30;7.60;;;;;;;21.22;50.33;99164.06;5110692;28;20113;-61
2022/09/13 03:16:26;;;;;;;11.52;8.43;;;;;;;21.16;50.14;99157.56;5110796;28;20060;-62
2022/09/13 03:19:17;;;;;;;8.80;7.00;;;;;;;21.11;50.10;99149.22;5110219;28;20050;-61
2022/09/13 03:22:21;;;;;;;8.02;7.22;;;;;;;21.06;50.34;99151.59;5110653;28;20048;-61
2022/09/13 03:25:12;;;;;;;8.05;6.95;;;;;;;21.03;50.74;99141.22;5058656;28;20051;-62
2022/09/13 03:27:45;;;;;;;8.15;6.63;;;;;;;21.02;50.22;99139.56;5110601;28;20040;-62
2022/09/13 03:30:14;;;;;;;8.73;5.97;;;;;;;20.97;50.73;99142.72;5110725;28;20411;-62
2022/09/13 03:32:54;;;;;;;8.90;6.55;;;;;;;20.92;50.76;99139.72;5110489;28;20059;-64
2022/09/13 03:35:47;;;;;;;10.07;6.15;;;;;;;20.91;50.96;99138.06;5109231;28;20096;-62
2022/09/13 03:38:36;;;;;;;7.75;6.75;;;;;;;20.84;50.88;99135.22;5110573;28;20116;-61
2022/09/13 03:41:14;;;;;;;11.88;6.50;;;;;;;20.82;50.81;99150.59;5109329;28;20508;-61
2022/09/13 03:43:47;;;;;;;7.45;6.10;;;;;;;20.82;50.48;99146.06;5110334;28;20090;-61
2022/09/13 03:46:17;;;;;;;;;;;;;;;20.79;50.60;99153.63;5113198;28;20051;-61
2022/09/13 03:48:44;;;;;;;7.60;6.65;;;;;;;20.79;50.58;99149.06;5114175;28;19958;-62
2022/09/13 03:51:11;;;;;;;9.32;7.35;;;;;;;20.74;51.08;99147.94;5114233;28;20451;-61
2022/09/13 03:53:44;;;;;;;9.30;7.53;;;;;;;20.68;51.47;99147.59;5112697;28;20130;-62
2022/09/13 03:56:15;;;;;;;8.10;7.28;;;;;;;20.64;51.83;99148.91;5112597;28;20075;-61
2022/09/13 03:58:42;;;;;;;10.60;8.10;;;;;;;20.64;51.40;99148.91;5113956;28;20048;-61
2022/09/13 04:01:09;;;;;;;8.85;7.80;;;;;;;20.61;51.47;99143.94;5114162;28;20059;-63
2022/09/13 04:03:37;;;;;;;12.65;8.35;;;;;;;20.60;51.37;99147.63;5113749;28;20055;-64
2022/09/13 04:06:04;;;;;;;8.77;7.85;;;;;;;20.60;51.83;99149.44;5113842;28;20059;-62
2022/09/13 04:08:31;;;;;;;9.80;7.97;;;;;;;20.59;51.92;99145.94;5113577;28;20135;-62
2022/09/13 04:10:59;;;;;;;11.57;7.80;;;;;;;20.59;51.75;99151.28;5112293;28;20445;-62
2022/09/13 04:13:26;;;;;;;8.70;7.55;;;;;;;20.58;51.77;99149.59;5114056;28;20039;-61
2022/09/13 04:15:53;;;;;;;10.38;7.68;;;;;;;20.55;51.94;99150.78;5113655;28;20120;-61
2022/09/13 04:18:19;;;;;;;10.07;8.50;;;;;;;20.56;51.83;99147.09;5113804;28;20132;-61
2022/09/13 04:20:57;;;;;;;9.35;7.60;;;;;;;20.52;52.46;99142.28;5113386;28;20466;-62
2022/09/13 04:23:25;;;;;;;10.88;8.50;;;;;;;20.56;52.15;99146.28;5113367;28;20131;-62
2022/09/13 04:25:52;;;;;;;10.50;7.97;;;;;;;20.57;52.00;99146.09;5112051;28;20087;-61
2022/09/13 04:28:20;;;;;;;11.38;8.27;;;;;;;20.59;52.19;99145.09;5113661;28;20047;-61
2022/09/13 04:30:48;;;;;;;9.23;7.63;;;;;;;20.59;52.08;99148.59;5111749;28;20083;-62
2022/09/13 04:33:18;;;;;;;12.98;8.02;;;;;;;20.62;52.07;99139.41;5111934;28;20083;-62
2022/09/13 04:35:44;;;;;;;7.60;6.82;;;;;;;20.62;52.04;99148.28;5112941;28;20091;-63
2022/09/13 04:38:11;;;;;;;9.93;8.38;;;;;;;20.63;51.89;99149.94;5113359;28;20104;-61
2022/09/13 04:40:38;;;;;;;9.93;7.88;;;;;;;20.65;52.15;99152.44;5111954;28;20188;-61
2022/09/13 04:43:05;;;;;;;12.57;7.95;;;;;;;20.67;52.44;99148.59;5113140;28;20069;-61
2022/09/13 04:45:31;;;;;;;10.68;9.00;;;;;;;20.69;52.33;99143.94;5112953;28;20112;-62
2022/09/13 04:47:58;;;;;;;10.60;9.05;;;;;;;20.72;52.29;99150.78;5113017;28;20043;-64
2022/09/13 04:50:25;;;;;;;9.70;8.40;;;;;;;20.73;52.16;99147.09;5111160;28;20048;-63
2022/09/13 04:52:54;;;;;;;10.73;9.00;;;;;;;20.76;52.28;99151.25;5113325;28;20047;-62
2022/09/13 04:55:21;;;;;;;11.00;9.30;;;;;;;20.78;52.53;99158.13;5112591;28;20094;-62
2022/09/13 04:57:52;;;;;;;12.30;9.95;;;;;;;20.79;52.62;99156.28;5112374;28;20181;-62
2022/09/13 05:00:19;;;;;;;12.68;10.75;;;;;;;20.83;52.24;99153.09;5112369;28;20061;-64
2022/09/13 05:02:45;;;;;;;13.82;10.32;;;;;;;20.86;52.40;99157.25;5112613;28;20052;-62
2022/09/13 05:05:12;;;;;;;11.45;9.18;;;;;;;20.87;52.57;99155.44;5112523;28;20056;-62
2022/09/13 05:07:39;;;;;;;14.85;10.07;;;;;;;20.88;52.23;99149.94;5112514;28;20094;-62
2022/09/13 05:10:06;;;;;;;11.27;9.23;;;;;;;20.91;52.65;99159.47;5112518;28;20046;-64
2022/09/13 05:12:32;;;;;;;12.32;10.00;;;;;;;20.91;52.66;99160.31;5112563;28;20055;-62
2022/09/13 05:14:59;;;;;;;14.35;10.13;;;;;;;20.93;52.50;99158.28;5112502;28;20082;-62
2022/09/13 05:17:26;;;;;;;12.82;10.00;;;;;;;20.93;52.38;99158.28;5112118;28;20044;-63
2022/09/13 05:19:52;;;;;;;13.07;10.52;;;;;;;20.94;52.48;99159.13;5112045;28;20059;-62
2022/09/13 05:22:19;;;;;;;11.55;10.30;;;;;;;20.93;52.52;99158.28;5112066;28;20098;-62
2022/09/13 05:24:46;;;;;;;13.05;10.48;;;;;;;20.93;52.71;99163.63;5112228;28;20090;-62
2022/09/13 05:27:12;;;;;;;15.75;11.73;;;;;;;20.94;52.44;99161.81;5112288;28;20047;-62
2022/09/13 05:29:39;;;;;;;12.52;10.68;;;;;;;20.94;52.84;99167.97;5111976;28;20116;-62
2022/09/13 05:32:05;;;;;;;11.48;9.30;;;;;;;20.93;52.70;99168.19;5111920;28;20578;-61
2022/09/13 05:34:32;;;;;;;12.65;10.68;;;;;;;20.93;52.79;99169.00;5112078;28;20090;-61
2022/09/13 05:36:58;;;;;;;13.85;10.63;;;;;;;20.92;52.55;99164.66;5112002;28;20094;-60
2022/09/13 05:39:25;;;;;;;12.43;10.93;;;;;;;20.93;52.99;99166.31;5111738;28;20087;-61
2022/09/13 05:42:05;;;;;;;13.18;10.50;;;;;;;20.94;52.72;99164.50;5111807;28;20074;-61
2022/09/13 05:44:31;;;;;;;16.92;12.57;;;;;;;20.94;52.79;99159.94;5111819;28;20132;-61
2022/09/13 05:46:58;;;;;;;14.52;11.93;;;;;;;20.95;52.90;99168.81;5112110;28;20116;-61
2022/09/13 05:49:24;;;;;;;12.68;10.77;;;;;;;20.98;52.97;99171.16;5111876;28;20047;-62
2022/09/13 05:51:51;;;;;;;13.88;12.32;;;;;;;21.00;53.00;99171.00;5111646;28;20113;-62
2022/09/13 05:54:18;;;;;;;13.68;11.70;;;;;;;21.01;53.10;99170.00;5111786;28;20051;-61
2022/09/13 05:56:44;;;;;;;15.57;12.93;;;;;;;21.04;53.38;99172.34;5112004;28;20134;-63
2022/09/13 05:59:13;;;;;;;18.30;14.00;;;;;;;21.05;53.02;99166.78;5111118;27;20055;-62
2022/09/13 06:01:40;;;;;;;16.58;14.25;;;;;;;21.07;53.13;99159.44;5111726;28;20051;-62
2022/09/13 06:04:07;;;;;;;17.42;13.40;;;;;;;21.12;52.87;99164.25;5111503;28;20079;-62
2022/09/13 06:06:34;;;;;;;16.75;14.32;;;;;;;21.14;52.99;99158.75;5111595;28;20047;-62
2022/09/13 06:09:01;;;;;;;17.65;14.35;;;;;;;21.15;52.72;99163.94;5110704;28;20465;-63
2022/09/13 06:11:27;;;;;;;18.48;15.38;;;;;;;21.17;52.54;99164.59;5111391;28;20057;-61
2022/09/13 06:13:54;;;;;;;16.40;13.85;;;;;;;21.18;52.85;99165.44;5111140;28;20048;-62
2022/09/13 06:16:21;;;;;;;20.95;15.68;;;;;;;21.19;52.81;99164.41;5111507;28;20138;-61
2022/09/13 06:18:48;;;;;;;22.27;16.00;;;;;;;21.19;52.92;99165.25;5111085;28;20043;-61
2022/09/13 06:21:18;;;;;;;22.40;16.92;;;;;;;21.21;53.17;99165.94;5111343;28;20427;-62
2022/09/13 06:23:50;;;;;;;17.85;15.82;;;;;;;21.21;53.00;99171.28;5111650;28;20094;-61
2022/09/13 06:26:20;;;;;;;19.15;15.05;;;;;;;21.25;53.14;99168.25;5110955;28;20091;-64
2022/09/13 06:28:52;;;;;;;18.45;14.68;;;;;;;21.26;53.24;99169.94;5109764;28;20048;-62
2022/09/13 06:31:22;;;;;;;18.52;14.68;;;;;;;21.29;53.14;99173.09;5110054;28;20487;-62
2022/09/13 06:33:54;;;;;;;20.48;15.50;;;;;;;21.32;53.14;99172.75;5111031;28;20108;-62
2022/09/13 06:36:20;;;;;;;20.60;15.50;;;;;;;21.35;53.44;99176.94;5111621;28;20126;-62
2022/09/13 06:38:47;;;;;;;19.13;15.82;;;;;;;21.37;53.16;99174.91;5110678;28;20108;-63
2022/09/13 06:41:17;;;;;;;19.15;15.00;;;;;;;21.39;53.24;99174.75;5109641;28;20499;-62
2022/09/13 06:43:44;;;;;;;18.63;14.50;;;;;;;21.43;53.02;99173.38;5111059;28;20054;-63
2022/09/13 06:46:13;;;;;;;17.42;14.95;;;;;;;21.44;53.17;99185.75;5111038;28;20082;-61
2022/09/13 06:48:42;;;;;;;20.33;14.43;;;;;;;21.45;53.01;99180.22;5110844;28;20066;-62
2022/09/13 06:51:12;;;;;;;20.25;15.85;;;;;;;21.45;53.16;99188.28;5110792;28;20090;-63
2022/09/13 06:53:40;;;;;;;18.33;14.55;;;;;;;21.46;53.09;99181.91;5110853;28;20097;-62
2022/09/13 06:56:10;;;;;;;17.27;15.15;;;;;;;21.45;53.74;99180.22;5109827;28;20118;-62
2022/09/13 06:58:38;;;;;;;16.52;14.70;;;;;;;21.46;53.16;99175.72;5110648;28;20538;-62
2022/09/13 07:01:11;;;;;;;16.60;14.23;;;;;;;21.47;53.48;99180.91;5110761;28;20039;-63
2022/09/13 07:03:40;;;;;;;17.08;14.68;;;;;;;21.48;53.67;99187.94;5110843;28;20048;-64
2022/09/13 07:06:08;;;;;;;16.58;13.73;;;;;;;21.50;53.56;99185.09;5110617;28;20090;-62
2022/09/13 07:08:35;;;;;;;16.02;13.52;;;;;;;21.53;53.72;99186.56;5109564;28;20103;-62
2022/09/13 07:11:02;;;;;;;17.55;14.85;;;;;;;21.53;53.81;99184.72;5110681;28;20087;-63
2022/09/13 07:13:29;;;;;;;19.65;15.60;;;;;;;21.56;53.93;99192.41;5110789;28;20091;-62
2022/09/13 07:15:56;;;;;;;17.27;14.70;;;;;;;21.59;53.90;99183.19;5110476;28;20079;-63
2022/09/13 07:18:22;;;;;;;19.40;15.35;;;;;;;21.60;53.96;99193.72;5110308;28;20050;-63
2022/09/13 07:20:49;;;;;;;17.27;14.93;;;;;;;21.61;53.79;99195.41;5114153;28;20051;-62
2022/09/13 07:23:15;;;;;;;18.23;14.93;;;;;;;21.64;54.11;99193.41;5114793;28;20199;-62
2022/09/13 07:25:42;;;;;;;16.02;14.32;;;;;;;21.66;53.69;99194.88;5114481;28;20105;-61
2022/09/13 07:28:08;;;;;;;18.17;14.30;;;;;;;21.67;54.07;99196.56;5113121;28;20139;-63
2022/09/13 07:30:35;;;;;;;17.95;14.68;;;;;;;21.68;53.96;99192.03;5114286;28;20390;-62
2022/09/13 07:33:01;;;;;;;17.73;14.38;;;;;;;21.69;54.06;99199.06;5114378;28;20134;-62
2022/09/13 07:35:28;;;;;;;15.10;13.35;;;;;;;21.70;54.47;99198.03;5114504;28;20079;-62
2022/09/13 07:37:54;;;;;;;17.58;13.20;;;;;;;21.70;54.68;99195.38;5114368;28;20105;-63
2022/09/13 07:40:21;;;;;;;14.73;12.80;;;;;;;21.70;54.31;99193.53;5112651;28;20100;-62
2022/09/13 07:42:48;;;;;;;17.48;13.13;;;;;;;21.72;54.65;99194.22;5114401;28;20040;-61
2022/09/13 07:45:14;;;;;;;16.52;12.10;;;;;;;21.73;54.75;99203.94;5113927;28;20083;-62
2022/09/13 07:47:41;;;;;;;12.88;11.52;;;;;;;21.74;54.77;99208.28;5114007;28;20134;-63
2022/09/13 07:50:08;;;;;;;17.58;11.80;;;;;;;21.77;54.67;99206.25;5114209;28;20051;-62
2022/09/13 07:52:36;;;;;;;15.57;11.95;;;;;;;21.78;55.28;99218.63;5113850;28;20480;-63
2022/09/13 07:55:05;;;;;;;14.93;11.98;;;;;;;21.79;55.16;99213.09;5114055;28;20127;-64
2022/09/13 07:57:31;;;;;;;15.98;11.65;;;;;;;21.80;55.45;99221.97;5113742;28;20139;-63
2022/09/13 07:59:58;;;;;;;14.50;11.02;;;;;;;21.82;55.08;99219.94;5113614;28;20051;-62
2022/09/13 08:02:24;;;;;;;14.25;11.13;;;;;;;21.84;55.53;99223.31;5113904;28;20082;-61
2022/09/13 08:04:51;;;;;;;14.38;11.75;;;;;;;21.85;55.23;99217.78;5113816;28;20135;-64
2022/09/13 08:07:17;;;;;;;14.65;11.30;;;;;;;21.87;55.67;99212.25;5112511;28;20100;-62
2022/09/13 08:09:44;;;;;;;14.65;11.23;;;;;;;21.89;55.39;99207.53;5113555;28;20139;-62
2022/09/13 08:12:10;;;;;;;13.35;10.80;;;;;;;21.90;55.71;99214.56;5113539;28;20131;-63
2022/09/13 08:14:37;;;;;;;15.23;11.93;;;;;;;21.91;55.48;99218.94;5113451;28;20085;-63
2022/09/13 08:17:05;;;;;;;13.65;11.10;;;;;;;21.93;55.77;99219.56;5113608;28;20039;-63
2022/09/13 08:19:32;;;;;;;14.23;11.77;;;;;;;21.96;55.78;99223.75;5113414;28;20099;-63
2022/09/13 08:22:47;;;;;;;14.15;10.80;;;;;;;21.93;56.29;99224.94;5113565;28;20462;-63
2022/09/13 08:25:14;;;;;;;17.50;11.43;;;;;;;22.02;56.01;99227.56;5111754;28;20048;-62
2022/09/13 08:27:40;;;;;;;15.35;11.32;;;;;;;22.04;56.08;99225.53;5112657;28;20123;-62
2022/09/13 08:30:07;;;;;;;16.40;11.82;;;;;;;22.05;56.11;99225.38;5112893;28;20126;-63
2022/09/13 08:32:34;;;;;;;15.07;11.55;;;;;;;22.09;56.06;99223.19;5112669;28;20098;-64
2022/09/13 08:35:01;;;;;;;15.63;12.75;;;;;;;22.13;56.17;99237.91;5113423;28;20079;-62
2022/09/13 08:37:27;;;;;;;16.27;12.90;;;;;;;22.17;56.46;99231.19;5113531;28;20086;-61
2022/09/13 08:39:54;;;;;;;15.85;11.75;;;;;;;22.22;56.40;99238.69;5112476;28;20148;-62
2022/09/13 08:42:45;;;;;;;18.05;12.93;;;;;;;22.22;56.78;99230.63;5113279;27;20062;-62
2022/09/13 08:45:12;;;;;;;15.48;13.05;;;;;;;22.31;56.36;99231.44;5113130;28;20048;-62
2022/09/13 08:48:00;;;;;;;14.88;12.60;;;;;;;22.29;56.68;99234.28;5112062;28;20086;-63
2022/09/13 08:50:35;;;;;;;16.75;12.70;;;;;;;22.33;56.52;99237.44;5109917;28;20052;-62
2022/09/13 08:53:24;;;;;;;13.98;11.00;;;;;;;22.32;56.60;99235.78;5109879;28;20083;-61
2022/09/13 08:55:59;;;;;;;19.73;12.75;;;;;;;22.36;56.12;99235.22;5111191;28;20047;-63
2022/09/13 08:58:57;;;;;;;15.82;12.00;;;;;;;22.32;56.71;99233.09;5110699;28;20130;-63
2022/09/13 09:01:48;;;;;;;14.77;12.27;;;;;;;22.33;56.62;99237.44;5111480;28;20381;-62
2022/09/13 09:04:37;;;;;;;16.42;13.00;;;;;;;22.36;56.83;99245.13;5112768;28;20051;-62
2022/09/13 09:07:07;;;;;;;15.18;12.02;;;;;;;22.33;56.87;99248.16;5112863;28;20055;-62
2022/09/13 09:09:40;;;;;;;15.48;12.20;;;;;;;22.32;56.94;99247.31;5112420;28;20087;-62
2022/09/13 09:12:17;;;;;;;13.98;11.82;;;;;;;22.30;57.62;99248.50;5111203;28;20134;-62
2022/09/13 09:14:53;;;;;;;14.88;12.15;;;;;;;22.31;57.34;99244.84;5112310;28;20085;-62
2022/09/13 09:17:28;;;;;;;16.30;11.73;;;;;;;22.30;57.44;99251.19;5111075;28;20048;-62
2022/09/13 09:20:08;;;;;;;15.65;10.90;;;;;;;22.29;57.64;99249.53;5111016;28;20423;-61
2022/09/13 09:22:35;;;;;;;14.48;11.25;;;;;;;22.31;57.45;99248.34;5112433;28;20511;-61
2022/09/13 09:25:02;;;;;;;11.65;9.93;;;;;;;22.33;57.74;99250.84;5112232;28;20058;-62
2022/09/13 09:27:30;;;;;;;14.45;10.43;;;;;;;22.36;58.02;99253.19;5112052;28;20479;-64
2022/09/13 09:29:57;;;;;;;12.30;11.00;;;;;;;22.39;57.99;99255.53;5111883;28;20522;-62
2022/09/13 09:32:34;;;;;;;11.57;8.77;;;;;;;22.37;58.34;99250.31;5112529;28;20101;-62
2022/09/13 09:35:28;;;;;;;11.18;9.38;;;;;;;22.39;58.59;99244.78;5112103;28;20503;-62
2022/09/13 09:38:27;;;;;;;10.15;8.10;;;;;;;22.43;58.42;99248.75;5111847;28;20048;-63
2022/09/13 09:40:54;;;;;;;10.63;7.78;;;;;;;22.51;58.13;99248.72;5111958;28;20052;-63
2022/09/13 09:43:32;;;;;;;10.52;8.07;;;;;;;22.57;58.83;99243.69;5110944;28;20079;-62
2022/09/13 09:46:01;;;;;;;11.98;8.10;;;;;;;22.64;58.36;99240.13;5094404;28;20457;-62
2022/09/13 09:48:36;;;;;;;8.07;6.60;;;;;;;22.68;58.29;99240.56;5111913;28;20496;-62
2022/09/13 09:51:05;;;;;;;7.97;7.07;;;;;;;22.75;57.97;99241.53;5110555;28;20082;-61
2022/09/13 09:53:38;;;;;;;8.15;6.78;;;;;;;22.80;57.85;99238.28;5111780;28;20079;-64
2022/09/13 09:56:22;;;;;;;;;;;;;;;22.83;57.21;99242.50;5112291;28;20130;-61
2022/09/13 09:58:50;;;;;;;7.78;5.32;;;;;;;22.94;57.30;99243.91;5109888;28;20014;-62
2022/09/13 10:01:26;;;;;;;7.97;6.07;;;;;;;22.94;57.78;99238.53;5110190;28;20065;-61
2022/09/13 10:03:57;;;;;;;7.78;5.80;;;;;;;23.00;57.57;99238.66;5110179;28;20526;-62
2022/09/13 10:06:27;;;;;;;6.20;5.30;;;;;;;23.07;57.47;99245.97;5111565;28;20091;-62
2022/09/13 10:08:59;;;;;;;7.68;5.88;;;;;;;23.09;57.43;99239.41;5111264;28;20082;-62
2022/09/13 10:11:44;;;;;;;7.03;5.27;;;;;;;23.08;57.56;99245.78;5110021;28;20090;-62
2022/09/13 10:14:33;;;;;;;6.10;5.20;;;;;;;23.13;57.36;99237.16;5111330;28;20079;-62
2022/09/13 10:17:21;;;;;;;7.15;5.50;;;;;;;23.17;57.43;99233.94;5111265;28;20556;-63
2022/09/13 10:20:07;;;;;;;8.07;5.47;;;;;;;23.23;57.25;99234.22;5110951;28;20122;-62
2022/09/13 10:22:34;;;;;;;7.38;5.40;;;;;;;23.31;57.70;99234.16;5110159;28;20047;-63
2022/09/13 10:25:35;;;;;;;6.40;5.50;;;;;;;23.33;57.29;99233.97;5111428;28;20142;-64
2022/09/13 10:28:05;;;;;;;7.50;5.20;;;;;;;23.44;57.19;99238.94;5078146;28;20097;-64
2022/09/13 10:30:51;;;;;;;6.53;4.57;;;;;;;23.45;56.86;99237.91;5111423;28;20519;-62
2022/09/13 10:33:32;;;;;;;6.80;4.80;;;;;;;23.50;56.81;99234.63;5111245;28;20079;-62
2022/09/13 10:36:04;;;;;;;5.25;4.75;;;;;;;23.59;57.24;99232.72;5111469;28;20139;-62
2022/09/13 10:38:35;;;;;;;5.72;4.75;;;;;;;23.66;57.30;99230.94;5110713;28;20139;-62
2022/09/13 10:41:06;;;;;;;6.80;4.60;;;;;;;23.78;57.18;99234.00;5111087;28;20130;-63
2022/09/13 10:43:33;;;;;;;4.93;4.43;;;;;;;23.90;57.40;99234.34;5109829;28;20087;-65
2022/09/13 10:46:03;;;;;;;6.13;4.97;;;;;;;24.00;56.69;99234.06;5110919;28;20048;-63
2022/09/13 10:48:42;;;;;;;6.18;5.15;;;;;;;24.07;56.22;99238.47;5109522;28;20138;-63
2022/09/13 10:51:37;;;;;;;6.00;4.47;;;;;;;24.06;55.80;99231.44;5110708;28;20052;-63
2022/09/13 10:54:15;;;;;;;6.47;4.25;;;;;;;24.07;55.32;99233.09;5111185;28;20089;-62
2022/09/13 10:56:43;;;;;;;6.75;3.85;;;;;;;24.05;55.13;99229.78;5113876;28;20082;-63
2022/09/13 10:59:24;;;;;;;4.65;3.78;;;;;;;23.99;55.59;99232.41;5113574;28;20102;-63
2022/09/13 11:02:13;;;;;;;5.82;3.33;;;;;;;23.93;55.35;99232.09;5113884;28;20051;-64
2022/09/13 11:05:18;;;;;;;4.15;3.22;;;;;;;23.85;55.12;99239.44;5115149;28;20134;-62
2022/09/13 11:08:03;;;;;;;4.40;2.88;;;;;;;23.86;55.07;99233.03;5113495;28;20516;-61
2022/09/13 11:10:46;;;;;;;4.43;3.42;;;;;;;23.74;55.65;99236.19;5114841;28;20138;-62
2022/09/13 11:13:23;;;;;;;4.10;3.70;;;;;;;23.74;56.10;99238.06;5113638;28;20473;-62
2022/09/13 11:15:58;;;;;;;4.18;3.88;;;;;;;23.68;55.90;99237.81;5114948;28;20047;-62
2022/09/13 11:18:52;;;;;;;4.30;3.90;;;;;;;23.67;55.87;99232.63;5114684;28;20047;-62
2022/09/13 11:21:31;;;;;;;5.03;3.95;;;;;;;23.65;55.91;99248.06;5114728;28;20039;-63
2022/09/13 11:24:03;;;;;;;4.68;4.30;;;;;;;23.68;56.30;99239.66;5114499;28;20138;-63
2022/09/13 11:26:56;;;;;;;4.82;4.32;;;;;;;23.61;56.73;99244.09;5114601;28;20073;-62
2022/09/13 11:29:23;;;;;;;;;;;;;;;23.66;56.35;99244.38;5113541;28;20500;-62
2022/09/13 11:31:55;;;;;;;3.85;3.55;;;;;;;23.70;55.95;99240.31;5114296;28;19967;-64
2022/09/13 11:34:40;;;;;;;3.97;3.30;;;;;;;23.72;55.94;99238.25;5114550;28;20142;-63
2022/09/13 11:37:34;;;;;;;3.58;3.28;;;;;;;23.69;56.64;99241.31;5114218;28;20083;-61
2022/09/13 11:40:20;;;;;;;3.40;3.10;;;;;;;23.77;56.27;99243.09;5114184;28;20043;-62
2022/09/13 11:43:01;;;;;;;3.05;2.80;;;;;;;23.79;56.39;99238.34;5114179;28;20050;-62
2022/09/13 11:45:34;;;;;;;3.17;2.90;;;;;;;23.82;56.50;99238.78;5114488;28;20051;-64
2022/09/13 11:48:29;;;;;;;4.53;2.33;;;;;;;23.90;56.55;99237.88;5113004;28;20044;-62
2022/09/13 11:51:13;;;;;;;2.15;1.95;;;;;;;24.00;56.55;99232.19;5114527;28;20094;-62
2022/09/13 11:54:05;;;;;;;1.60;1.50;;;;;;;24.18;56.74;99233.69;5114062;28;20047;-62
2022/09/13 11:56:37;;;;;;;2.45;1.67;;;;;;;24.42;56.59;99226.25;5114140;28;20100;-63